Annville, Pennsylvania
Current Conditions -  °F | °C
As of 7:58 AM on Tuesday 21 Oct 2014 (Local Time) from KMUI Reporting Station
Moderate Fog Moderate Fog  
Wind Chill: 46°   Ceiling: 4900
Heat Index: 46°   Visibility: 0.25mi
Dew Point: 46°   Wind: 0mph
Humidity: 100%   Direction: NA
Pressure: 29.87"   Gusts: NA
Location:  40.33°N, 76.51°W
Report Text: KMUI 211158Z AUTO 00000KT 1/4SM FG FEW004 BKN049 08/08 A2987 RMK AO2 SLP119 60002 70011 53006 RVRNO $
Loading
Personal Weather Stations






























Interactive Weather Map
Tropical Storm Tracking
New forecast layout! Learn more

10-Day Weather Forecast

Advertisements
Track Severe Weather on mobile